logo
Rechercher aéroport 
image banner adimage banner adimage banner ad
image banner ad

O37 - Haigh Field

Situé à Orland, United States

ICAO - O37, IATA -

Données fournies par Airmate  

Information générale

Coordonnées: N39°43'13" W122°8'47"
Élévation : 218 feet MSL.
Variation magnétique : 14° East
Voir autres Aéroports à California

Données opérationnelles

Special qualification required
Heure actuelle UTC:
Heure actuelle locale:
Météo à : KCIC - Chico Muni ( 26 km )
METAR: KCIC 011747Z 00000KT 10SM CLR 25/09 A2983
Voir NOTAMs / SUP AIP / TFR affectant cet aéroport [VIEW]
Fréquences de communication: [VIEW]

Pistes:

Identifiant RWYQFULongueur (ft)Largeur (ft)SurfaceLDA (ft)
15166°450060ASPH
33346°450060ASPH

Coordonnées de l'aéroport

Adresse: Orland United States

Vue satellite de O37